This is the latest recevied weather packets stored in our database for station/object AH6GR. If no packets are shown the sender has not sent any weather packets the latest 10 day(s).
| Time | Temp. | Humidity | Pressure | Rain* | Wind** | Luminosity | Snow |
|---|---|---|---|---|---|---|---|
| 1778199637 | 23.33° C | 84% | 1017.4 hPa | 0 mm | - | - | - |
| 1778199367 | 23.33° C | 83% | 1016.6 hPa | 0 mm | - | - | - |
| 1778199037 | 23.89° C | 83% | 1017.6 hPa | 0 mm | - | - | - |
| 1778198455 | 23.89° C | 82% | 1016.6 hPa | 0 mm | - | - | - |
| 1778198437 | 23.89° C | 82% | 1017.6 hPa | 0 mm | - | - | - |
| 1778197837 | 24.44° C | 82% | 1017.6 hPa | 0 mm | - | - | - |
| 1778197526 | 24.44° C | 82% | 1016.7 hPa | 0 mm | - | - | - |
| 1778197237 | 25° C | 79% | 1017.8 hPa | 0 mm | - | - | - |
| 1778196637 | 24.44° C | 81% | 1017.9 hPa | 0 mm | - | - | - |
| 1778196614 | 23.89° C | 81% | 1016.9 hPa | 0 mm | - | - | - |
| 1778196037 | 24.44° C | 81% | 1017.9 hPa | 0 mm | - | - | - |
| 1778195755 | 23.89° C | 80% | 1017 hPa | 0 mm | - | - | - |
| 1778195437 | 24.44° C | 81% | 1018 hPa | 0 mm | - | - | - |
| 1778194836 | 24.44° C | 83% | 1018.1 hPa | 0 mm | - | - | - |
| 1778194832 | 23.89° C | 83% | 1017.1 hPa | 0 mm | - | - | - |
| 1778194237 | 23.89° C | 82% | 1018.2 hPa | 0 mm | - | - | - |
| 1778193967 | 23.89° C | 83% | 1017.3 hPa | 0 mm | - | - | - |
| 1778193637 | 23.89° C | 82% | 1018.4 hPa | 0 mm | - | - | - |
| 1778193044 | 23.89° C | 83% | 1017.4 hPa | 0 mm | - | - | - |
| 1778193037 | 23.89° C | 83% | 1018.4 hPa | 0 mm | - | - | - |
| 1778192436 | 23.89° C | 84% | 1018.4 hPa | 0 mm | - | - | - |
| 1778192124 | 23.89° C | 81% | 1017.5 hPa | 0 mm | - | - | - |
| 1778191837 | 24.44° C | 82% | 1018.5 hPa | 0 mm | - | - | - |
| 1778191259 | 23.89° C | 81% | 1017.5 hPa | 0 mm | - | - | - |
| 1778191237 | 24.44° C | 82% | 1018.5 hPa | 0 mm | - | - | - |
* Rain latest hour (hover to see other rain measurements)
** Current wind speed in m/s (hover to see current wind gust speed)